Skip Navigation Links Skip Navigation Links

Current Weather

Pearson Intl. Apt., Toronto, Ont.

For information only: do not use for flight planning or navigation.
Latest weather
Observation time Monday, October 18, 2021 3:00 PM EDT
Local time Monday, October 18, 2021 3:25 PM EDT
Flight conditions Visual Meteorological Conditions
Winds
Wind direction Northwest (310°)
Wind speed 18 mph
Visibility 15 mi.
Sky condition
Ceiling unlimited
Cloud layer few clouds 2,500 ft.
Cloud layer scattered clouds 4,500 ft.
Temperature 55°F
Dewpoint 36°F
Altimeter 29.98 in.Hg
Derived measurements
Relative humidity 47%
Density altitude 370 ft.
Sea-level pressure 30.00 in.Hg
METAR CYYZ 181900Z 31016KT 15SM FEW025 SCT045 13/02 A2998 RMK CU2SC2 SLP158

Settings

Location code

InnerDrive.Weather 4.0.6770.0 Release CLR 4.0.30319.42000
Copyright ©2018 Inner Drive Technology. All rights reserved. Portions Copyright ©1986-2018 David Braverman.

Find weather

Site navigation


Skip Navigation Links

Place info

Page info

PayPal - The safer, easier way to pay online!

Return home.

Copyright ©2021 Inner Drive Technology. Purveyors of fine, hand-crafted computer software. Page printed 2021-10-18T19:25:22 UTC.